Time;durP1;ratioP1;P1;durP2;ratioP2;P2;SDS_P1;SDS_P2;PMS_P1;PMS_P2;Temp;Humidity;BMP_temperature;BMP_pressure;BME280_temperature;BME280_humidity;BME280_pressure;Samples;Min_cycle;Max_cycle;Signal;HPM_P1;HPM_P2
2024/04/14 00:00:17;;;;;;;1.40;1.30;;;;;;;;;;5461246;26;19995;-78
2024/04/14 00:02:44;;;;;;;0.90;0.90;;;;;;;;;;5437313;26;20009;-78
2024/04/14 00:05:10;;;;;;;1.00;1.00;;;;;;;;;;5452665;26;20440;-78
2024/04/14 00:07:37;;;;;;;0.93;0.93;;;;;;;;;;5449912;26;20011;-78
2024/04/14 00:10:04;;;;;;;1.02;1.00;;;;;;;;;;5451806;26;20007;-78
2024/04/14 00:12:30;;;;;;;1.25;1.15;;;;;;;;;;5452165;26;20009;-78
2024/04/14 00:14:56;;;;;;;1.10;1.10;;;;;;;;;;5451578;26;20010;-78
2024/04/14 00:17:22;;;;;;;1.27;1.17;;;;;;;;;;5451417;26;20010;-77
2024/04/14 00:19:52;;;;;;;0.93;0.90;;;;;;;;;;5480061;26;19999;-78
2024/04/14 00:22:19;;;;;;;1.20;1.10;;;;;;;;;;5436800;26;20007;-78
2024/04/14 00:24:45;;;;;;;1.30;1.15;;;;;;;;;;5450814;26;20045;-77
2024/04/14 00:27:11;;;;;;;0.82;0.82;;;;;;;;;;5451255;26;20005;-78
2024/04/14 00:29:37;;;;;;;1.17;1.13;;;;;;;;;;5451778;26;19990;-78
2024/04/14 00:32:04;;;;;;;1.25;1.15;;;;;;;;;;5446516;26;20018;-78
2024/04/14 00:34:30;;;;;;;1.92;1.30;;;;;;;;;;5441185;26;20037;-78
2024/04/14 00:36:56;;;;;;;1.73;1.13;;;;;;;;;;5450540;26;20023;-76
2024/04/14 00:39:22;;;;;;;1.40;1.30;;;;;;;;;;5450778;26;20006;-77
2024/04/14 00:41:48;;;;;;;1.40;1.30;;;;;;;;;;5479135;26;20027;-78
2024/04/14 00:44:14;;;;;;;1.23;1.10;;;;;;;;;;5450780;26;20491;-77
2024/04/14 00:46:41;;;;;;;1.27;1.17;;;;;;;;;;5435954;26;20003;-77
2024/04/14 00:49:07;;;;;;;1.85;1.48;;;;;;;;;;5464176;26;20011;-77
2024/04/14 00:51:35;;;;;;;2.55;1.50;;;;;;;;;;5469890;26;20026;-76
2024/04/14 00:54:01;;;;;;;1.00;1.00;;;;;;;;;;5495913;26;19999;-76
2024/04/14 00:56:27;;;;;;;1.58;1.20;;;;;;;;;;5446841;26;19987;-77
2024/04/14 00:58:54;;;;;;;1.00;1.00;;;;;;;;;;5470098;26;20018;-77
2024/04/14 01:01:21;;;;;;;1.08;0.98;;;;;;;;;;5461113;26;20033;-77
2024/04/14 01:03:48;;;;;;;1.02;1.02;;;;;;;;;;5442667;26;19996;-77
2024/04/14 01:06:15;;;;;;;1.00;0.90;;;;;;;;;;5474683;26;19994;-77
2024/04/14 01:08:41;;;;;;;0.95;0.95;;;;;;;;;;5473330;26;20002;-77
2024/04/14 01:11:07;;;;;;;2.22;1.10;;;;;;;;;;5469013;26;20042;-78
2024/04/14 01:13:33;;;;;;;1.02;1.00;;;;;;;;;;5475231;26;19999;-77
2024/04/14 01:16:00;;;;;;;1.20;1.10;;;;;;;;;;5465869;26;20056;-77
2024/04/14 01:18:26;;;;;;;1.08;1.00;;;;;;;;;;5451297;26;20024;-77
2024/04/14 01:20:52;;;;;;;1.33;1.00;;;;;;;;;;5459192;26;20003;-77
2024/04/14 01:23:18;;;;;;;1.52;1.27;;;;;;;;;;5468147;26;20006;-77
2024/04/14 01:25:44;;;;;;;1.27;1.17;;;;;;;;;;5473671;26;19995;-77
2024/04/14 01:28:12;;;;;;;1.23;0.98;;;;;;;;;;5460786;26;20006;-76
2024/04/14 01:30:38;;;;;;;1.50;1.40;;;;;;;;;;5474640;26;20002;-77
2024/04/14 01:33:04;;;;;;;0.90;0.90;;;;;;;;;;5451255;26;20063;-77
2024/04/14 01:35:31;;;;;;;0.90;0.90;;;;;;;;;;5459489;26;20029;-77
2024/04/14 01:37:57;;;;;;;0.88;0.88;;;;;;;;;;5456592;26;20457;-77
2024/04/14 01:40:23;;;;;;;0.80;0.80;;;;;;;;;;5458325;26;20083;-78
2024/04/14 01:42:49;;;;;;;0.63;0.60;;;;;;;;;;5505228;26;20023;-77
2024/04/14 01:45:16;;;;;;;0.98;0.98;;;;;;;;;;5475110;26;20045;-77
2024/04/14 01:47:42;;;;;;;0.68;0.68;;;;;;;;;;5467443;26;20068;-77
2024/04/14 01:50:09;;;;;;;0.50;0.50;;;;;;;;;;5465432;26;20005;-77
2024/04/14 01:52:35;;;;;;;0.70;0.70;;;;;;;;;;5474652;26;19987;-78
2024/04/14 01:55:01;;;;;;;0.63;0.63;;;;;;;;;;5457624;26;20037;-77
2024/04/14 01:57:27;;;;;;;0.73;0.73;;;;;;;;;;5464523;26;20003;-78
2024/04/14 01:59:53;;;;;;;1.20;0.60;;;;;;;;;;5475889;26;20027;-77
2024/04/14 02:02:19;;;;;;;0.75;0.60;;;;;;;;;;5442023;26;20000;-77
2024/04/14 02:04:46;;;;;;;0.82;0.60;;;;;;;;;;5445337;26;19991;-78
2024/04/14 02:07:12;;;;;;;1.13;0.73;;;;;;;;;;5461268;26;19999;-77
2024/04/14 02:09:38;;;;;;;0.70;0.70;;;;;;;;;;5468098;26;19999;-76
2024/04/14 02:12:05;;;;;;;0.65;0.60;;;;;;;;;;5475777;26;20056;-77
2024/04/14 02:14:31;;;;;;;0.60;0.60;;;;;;;;;;5475113;26;20006;-77
2024/04/14 02:16:57;;;;;;;0.77;0.77;;;;;;;;;;5457123;26;19987;-78
2024/04/14 02:19:23;;;;;;;1.20;0.65;;;;;;;;;;5450008;26;20023;-77
2024/04/14 02:21:49;;;;;;;0.60;0.60;;;;;;;;;;5452203;26;20327;-77
2024/04/14 02:24:16;;;;;;;0.55;0.55;;;;;;;;;;5452496;26;20343;-77
2024/04/14 02:26:42;;;;;;;0.98;0.68;;;;;;;;;;5452352;26;19999;-78
2024/04/14 02:29:08;;;;;;;0.65;0.65;;;;;;;;;;5452493;26;20010;-76
2024/04/14 02:31:34;;;;;;;0.45;0.40;;;;;;;;;;5440309;26;20097;-78
2024/04/14 02:34:00;;;;;;;0.60;0.60;;;;;;;;;;5434163;26;20076;-78
2024/04/14 02:36:28;;;;;;;1.05;0.95;;;;;;;;;;5452141;26;20010;-79
2024/04/14 02:38:55;;;;;;;0.57;0.57;;;;;;;;;;5480008;26;19999;-78
2024/04/14 02:41:21;;;;;;;0.82;0.77;;;;;;;;;;5451020;26;19991;-78
2024/04/14 02:43:48;;;;;;;0.45;0.40;;;;;;;;;;5480675;26;20299;-78
2024/04/14 02:46:14;;;;;;;0.82;0.80;;;;;;;;;;5423047;26;20001;-78
2024/04/14 02:48:40;;;;;;;0.70;0.70;;;;;;;;;;5439132;26;19999;-78
2024/04/14 02:51:06;;;;;;;0.63;0.63;;;;;;;;;;5450882;26;20071;-79
2024/04/14 02:53:32;;;;;;;0.70;0.70;;;;;;;;;;5452389;26;20472;-78
2024/04/14 02:55:59;;;;;;;1.20;0.90;;;;;;;;;;5452059;26;20477;-77
2024/04/14 02:58:25;;;;;;;1.00;1.00;;;;;;;;;;5451716;26;20280;-77
2024/04/14 03:01:00;;;;;;;0.80;0.73;;;;;;;;;;5451586;26;20124;-77
2024/04/14 03:03:27;;;;;;;0.80;0.70;;;;;;;;;;5436963;26;20010;-77
2024/04/14 03:06:03;;;;;;;1.02;0.70;;;;;;;;;;5451505;26;19998;-77
2024/04/14 03:08:29;;;;;;;0.65;0.65;;;;;;;;;;5451854;26;20035;-78
2024/04/14 03:10:56;;;;;;;0.70;0.70;;;;;;;;;;5450850;26;20042;-77
2024/04/14 03:13:22;;;;;;;0.63;0.63;;;;;;;;;;5449270;26;19999;-77
2024/04/14 03:15:49;;;;;;;0.90;0.90;;;;;;;;;;5451771;26;20006;-77
2024/04/14 03:18:15;;;;;;;0.68;0.68;;;;;;;;;;5452264;26;20417;-78
2024/04/14 03:20:41;;;;;;;0.80;0.75;;;;;;;;;;5422475;26;19999;-78
2024/04/14 03:23:07;;;;;;;0.82;0.70;;;;;;;;;;5450471;26;20029;-78
2024/04/14 03:25:33;;;;;;;0.60;0.60;;;;;;;;;;5451394;26;20015;-78
2024/04/14 03:28:00;;;;;;;1.00;0.90;;;;;;;;;;5451128;26;20116;-78
2024/04/14 03:30:26;;;;;;;0.47;0.47;;;;;;;;;;5451471;26;20001;-78
2024/04/14 03:32:52;;;;;;;0.68;0.68;;;;;;;;;;5450209;26;20445;-78
2024/04/14 03:35:19;;;;;;;0.70;0.60;;;;;;;;;;5430971;21;20021;-78
2024/04/14 03:37:45;;;;;;;0.57;0.57;;;;;;;;;;5415575;26;20006;-77
2024/04/14 03:40:11;;;;;;;0.55;0.55;;;;;;;;;;5416523;26;20028;-76
2024/04/14 03:42:37;;;;;;;0.60;0.60;;;;;;;;;;5416924;26;19996;-77
2024/04/14 03:45:05;;;;;;;0.68;0.50;;;;;;;;;;5419454;26;20008;-78
2024/04/14 03:47:33;;;;;;;0.85;0.57;;;;;;;;;;5384882;26;20032;-77
2024/04/14 03:49:59;;;;;;;0.50;0.50;;;;;;;;;;5416678;26;20000;-78
2024/04/14 03:52:25;;;;;;;1.00;0.60;;;;;;;;;;5385420;26;20000;-78
2024/04/14 03:54:51;;;;;;;0.43;0.43;;;;;;;;;;5416434;26;20350;-77
2024/04/14 03:57:17;;;;;;;0.40;0.40;;;;;;;;;;5385364;26;20348;-78
2024/04/14 03:59:48;;;;;;;0.50;0.50;;;;;;;;;;5416610;26;20456;-79
2024/04/14 04:02:14;;;;;;;0.60;0.45;;;;;;;;;;5420355;26;20039;-78
2024/04/14 04:04:41;;;;;;;0.50;0.50;;;;;;;;;;5422466;26;20027;-77
2024/04/14 04:07:07;;;;;;;0.50;0.50;;;;;;;;;;5403713;26;20008;-77
2024/04/14 04:09:33;;;;;;;0.50;0.50;;;;;;;;;;5398338;26;20052;-77
2024/04/14 04:11:59;;;;;;;0.40;0.40;;;;;;;;;;5437380;26;20000;-76
2024/04/14 04:14:25;;;;;;;0.50;0.45;;;;;;;;;;5425544;26;20082;-77
2024/04/14 04:16:51;;;;;;;0.60;0.60;;;;;;;;;;5386996;26;20349;-77
2024/04/14 04:19:17;;;;;;;0.45;0.45;;;;;;;;;;5389287;26;20314;-78
2024/04/14 04:21:44;;;;;;;0.50;0.50;;;;;;;;;;5419344;26;20072;-80
2024/04/14 04:24:10;;;;;;;0.52;0.52;;;;;;;;;;5419422;26;20043;-79
2024/04/14 04:26:36;;;;;;;0.50;0.50;;;;;;;;;;5389883;26;20007;-79
2024/04/14 04:29:03;;;;;;;0.28;0.28;;;;;;;;;;5423443;26;20010;-79
2024/04/14 04:31:29;;;;;;;0.40;0.40;;;;;;;;;;5420382;26;20010;-78
2024/04/14 04:33:55;;;;;;;0.40;0.40;;;;;;;;;;5419072;26;20055;-78
2024/04/14 04:36:21;;;;;;;0.30;0.30;;;;;;;;;;5420442;26;20027;-78
2024/04/14 04:38:47;;;;;;;0.30;0.30;;;;;;;;;;5419160;26;20489;-79
2024/04/14 04:41:13;;;;;;;0.40;0.32;;;;;;;;;;5421570;26;20000;-79
2024/04/14 04:43:40;;;;;;;0.40;0.40;;;;;;;;;;5423575;26;19996;-79
2024/04/14 04:46:07;;;;;;;0.50;0.50;;;;;;;;;;5422573;26;20015;-79
2024/04/14 04:48:33;;;;;;;0.20;0.20;;;;;;;;;;5423901;26;20010;-79
2024/04/14 04:50:59;;;;;;;0.52;0.40;;;;;;;;;;5423763;26;19999;-79
2024/04/14 04:53:25;;;;;;;0.30;0.30;;;;;;;;;;5438554;26;20004;-79
2024/04/14 04:55:51;;;;;;;0.47;0.47;;;;;;;;;;5422797;26;20047;-78
2024/04/14 04:58:21;;;;;;;0.75;0.57;;;;;;;;;;5424990;26;20101;-79
2024/04/14 05:00:51;;;;;;;0.55;0.50;;;;;;;;;;5392962;26;20010;-78
2024/04/14 05:03:17;;;;;;;0.47;0.47;;;;;;;;;;5395231;26;20069;-78
2024/04/14 05:05:53;;;;;;;0.60;0.60;;;;;;;;;;5392588;26;20043;-78
2024/04/14 05:08:19;;;;;;;0.57;0.52;;;;;;;;;;5410307;26;20008;-77
2024/04/14 05:10:45;;;;;;;1.98;0.60;;;;;;;;;;5424439;26;20015;-78
2024/04/14 05:13:12;;;;;;;0.63;0.50;;;;;;;;;;5391743;26;19995;-79
2024/04/14 05:15:38;;;;;;;0.70;0.60;;;;;;;;;;5422626;26;19992;-77
2024/04/14 05:18:04;;;;;;;0.63;0.63;;;;;;;;;;5423638;26;19995;-76
2024/04/14 05:20:31;;;;;;;0.43;0.43;;;;;;;;;;5422746;26;20327;-76
2024/04/14 05:22:57;;;;;;;0.60;0.50;;;;;;;;;;5423290;26;20015;-78
2024/04/14 05:25:23;;;;;;;0.65;0.65;;;;;;;;;;5391507;26;20001;-78
2024/04/14 05:27:49;;;;;;;0.60;0.60;;;;;;;;;;5406752;26;20003;-79
2024/04/14 05:30:15;;;;;;;0.40;0.40;;;;;;;;;;5422495;26;20000;-77
2024/04/14 05:32:41;;;;;;;0.50;0.50;;;;;;;;;;5422886;26;19996;-78
2024/04/14 05:35:07;;;;;;;0.50;0.50;;;;;;;;;;5422671;26;20003;-78
2024/04/14 05:37:34;;;;;;;0.45;0.45;;;;;;;;;;5421865;26;20003;-78
2024/04/14 05:40:00;;;;;;;0.68;0.40;;;;;;;;;;5422783;26;20003;-78
2024/04/14 05:42:26;;;;;;;0.25;0.25;;;;;;;;;;5424310;26;20007;-78
2024/04/14 05:44:52;;;;;;;0.40;0.40;;;;;;;;;;5397404;26;20006;-77
2024/04/14 05:47:18;;;;;;;0.45;0.45;;;;;;;;;;5422389;26;19992;-78
2024/04/14 05:49:44;;;;;;;0.38;0.38;;;;;;;;;;5422297;26;20017;-79
2024/04/14 05:52:10;;;;;;;0.47;0.38;;;;;;;;;;5422447;26;20447;-79
2024/04/14 05:54:37;;;;;;;0.30;0.30;;;;;;;;;;5422674;26;20087;-79
2024/04/14 05:57:03;;;;;;;0.77;0.50;;;;;;;;;;5423986;26;20007;-79
2024/04/14 05:59:29;;;;;;;0.35;0.35;;;;;;;;;;5423206;26;20345;-79
2024/04/14 06:01:55;;;;;;;0.38;0.28;;;;;;;;;;5401430;26;20008;-77
2024/04/14 06:04:21;;;;;;;0.60;0.60;;;;;;;;;;5392664;26;20407;-77
2024/04/14 06:06:50;;;;;;;0.40;0.40;;;;;;;;;;5437257;26;20010;-78
2024/04/14 06:09:16;;;;;;;0.82;0.40;;;;;;;;;;5408212;26;19992;-78
2024/04/14 06:11:42;;;;;;;0.60;0.40;;;;;;;;;;5430682;26;19991;-80
2024/04/14 06:14:08;;;;;;;0.93;0.43;;;;;;;;;;5422913;26;20068;-80
2024/04/14 06:16:34;;;;;;;0.57;0.57;;;;;;;;;;5391193;26;20358;-80
2024/04/14 06:19:00;;;;;;;0.52;0.52;;;;;;;;;;5421035;26;20000;-79
2024/04/14 06:21:27;;;;;;;0.70;0.70;;;;;;;;;;5427660;26;20003;-79
2024/04/14 06:23:53;;;;;;;0.90;0.90;;;;;;;;;;5405572;26;20042;-78
2024/04/14 06:26:19;;;;;;;0.85;0.73;;;;;;;;;;5427295;26;20006;-79
2024/04/14 06:28:45;;;;;;;0.80;0.80;;;;;;;;;;5420690;26;20007;-79
2024/04/14 06:31:11;;;;;;;1.23;1.02;;;;;;;;;;5414419;26;20049;-77
2024/04/14 06:33:37;;;;;;;0.85;0.85;;;;;;;;;;5413066;26;20005;-78
2024/04/14 06:36:04;;;;;;;1.13;0.88;;;;;;;;;;5422082;26;20071;-78
2024/04/14 06:38:30;;;;;;;1.58;1.00;;;;;;;;;;5420484;26;20073;-78
2024/04/14 06:40:56;;;;;;;1.08;0.70;;;;;;;;;;5421074;26;20076;-78
2024/04/14 06:43:22;;;;;;;1.92;1.00;;;;;;;;;;5421690;26;20008;-78
2024/04/14 06:45:53;;;;;;;1.30;0.93;;;;;;;;;;5389574;26;20000;-78
2024/04/14 06:48:20;;;;;;;0.93;0.90;;;;;;;;;;5394766;26;19992;-77
2024/04/14 06:50:46;;;;;;;0.85;0.85;;;;;;;;;;5388568;26;19996;-78
2024/04/14 06:53:13;;;;;;;0.70;0.70;;;;;;;;;;5388881;26;20078;-78
2024/04/14 06:55:44;;;;;;;0.73;0.73;;;;;;;;;;5423165;26;20007;-78
2024/04/14 06:58:10;;;;;;;1.05;0.93;;;;;;;;;;5424016;26;20373;-78
2024/04/14 07:00:36;;;;;;;0.82;0.80;;;;;;;;;;5422968;26;20486;-76
2024/04/14 07:03:02;;;;;;;0.60;0.60;;;;;;;;;;5406206;26;20054;-79
2024/04/14 07:05:29;;;;;;;0.60;0.60;;;;;;;;;;5428659;26;19995;-78
2024/04/14 07:07:55;;;;;;;0.60;0.60;;;;;;;;;;5426594;26;19996;-78
2024/04/14 07:10:21;;;;;;;0.95;0.70;;;;;;;;;;5390560;26;20012;-79
2024/04/14 07:12:47;;;;;;;1.00;0.88;;;;;;;;;;5421278;26;20018;-78
2024/04/14 07:15:13;;;;;;;1.13;1.00;;;;;;;;;;5421210;26;20018;-78
2024/04/14 07:17:40;;;;;;;0.60;0.60;;;;;;;;;;5420535;26;20131;-77
2024/04/14 07:20:06;;;;;;;0.95;0.80;;;;;;;;;;5421207;26;19999;-77
2024/04/14 07:22:32;;;;;;;1.27;1.05;;;;;;;;;;5434201;26;20006;-78
2024/04/14 07:25:01;;;;;;;1.27;1.00;;;;;;;;;;5394244;26;20091;-79
2024/04/14 07:27:27;;;;;;;2.05;1.00;;;;;;;;;;5421078;26;19999;-78
2024/04/14 07:29:54;;;;;;;1.02;0.95;;;;;;;;;;5424735;26;20322;-77
2024/04/14 07:32:21;;;;;;;1.35;0.98;;;;;;;;;;5404640;26;20045;-76
2024/04/14 07:34:47;;;;;;;0.65;0.65;;;;;;;;;;5424281;26;20014;-77
2024/04/14 07:37:13;;;;;;;1.13;1.05;;;;;;;;;;5391953;26;20000;-78
2024/04/14 07:39:39;;;;;;;0.70;0.70;;;;;;;;;;5423755;26;20040;-77
2024/04/14 07:42:08;;;;;;;1.02;0.85;;;;;;;;;;5422229;26;20015;-76
2024/04/14 07:44:34;;;;;;;1.00;1.00;;;;;;;;;;5421549;26;19999;-78
2024/04/14 07:47:00;;;;;;;1.55;0.95;;;;;;;;;;5389137;26;20038;-80
2024/04/14 07:49:26;;;;;;;2.25;1.27;;;;;;;;;;5389929;26;19995;-78
2024/04/14 07:51:52;;;;;;;1.73;1.17;;;;;;;;;;5420980;26;20000;-77
2024/04/14 07:54:19;;;;;;;1.58;1.02;;;;;;;;;;5421565;26;19999;-78
2024/04/14 07:56:45;;;;;;;1.02;0.98;;;;;;;;;;5421090;26;20015;-78
2024/04/14 07:59:11;;;;;;;2.75;1.27;;;;;;;;;;5420278;26;20113;-78
2024/04/14 08:01:37;;;;;;;1.42;1.20;;;;;;;;;;5422778;26;20004;-77
2024/04/14 08:04:03;;;;;;;1.48;1.38;;;;;;;;;;5413663;26;20048;-79
2024/04/14 08:06:29;;;;;;;1.08;0.90;;;;;;;;;;5422691;26;19999;-77
2024/04/14 08:08:55;;;;;;;5.57;1.17;;;;;;;;;;5423312;26;19999;-79
2024/04/14 08:11:21;;;;;;;1.13;0.82;;;;;;;;;;5402846;26;19992;-77
2024/04/14 08:13:47;;;;;;;0.90;0.90;;;;;;;;;;5438289;26;19999;-79
2024/04/14 08:16:14;;;;;;;1.92;1.20;;;;;;;;;;5423510;26;19996;-79
2024/04/14 08:18:40;;;;;;;1.00;1.00;;;;;;;;;;5393003;26;20473;-78
2024/04/14 08:21:06;;;;;;;1.77;1.10;;;;;;;;;;5424533;26;20007;-79
2024/04/14 08:23:32;;;;;;;1.17;1.08;;;;;;;;;;5393343;26;19995;-78
2024/04/14 08:26:00;;;;;;;1.27;0.85;;;;;;;;;;5391830;26;20368;-78
2024/04/14 08:28:26;;;;;;;1.10;1.00;;;;;;;;;;5424513;26;20519;-78
2024/04/14 08:30:52;;;;;;;1.27;0.90;;;;;;;;;;5424439;26;20014;-78
2024/04/14 08:33:18;;;;;;;1.08;0.95;;;;;;;;;;5435565;26;20005;-78
2024/04/14 08:35:45;;;;;;;2.47;0.82;;;;;;;;;;5392782;26;19995;-78
2024/04/14 08:38:11;;;;;;;1.55;0.82;;;;;;;;;;5424361;26;19995;-80
2024/04/14 08:40:37;;;;;;;2.58;1.20;;;;;;;;;;5435737;26;20000;-78
2024/04/14 08:43:04;;;;;;;1.23;1.08;;;;;;;;;;5432625;26;20071;-77
2024/04/14 08:45:32;;;;;;;1.92;1.00;;;;;;;;;;5424874;26;20024;-78
2024/04/14 08:47:59;;;;;;;1.33;0.90;;;;;;;;;;5424502;26;20028;-78
2024/04/14 08:50:26;;;;;;;0.80;0.80;;;;;;;;;;5423940;26;19999;-77
2024/04/14 08:52:52;;;;;;;0.70;0.70;;;;;;;;;;5424168;26;20014;-78
2024/04/14 08:55:18;;;;;;;1.45;1.17;;;;;;;;;;5424182;26;20004;-77
2024/04/14 08:57:45;;;;;;;0.98;0.98;;;;;;;;;;5423907;26;20129;-78
2024/04/14 09:00:17;;;;;;;1.30;1.00;;;;;;;;;;5424468;26;20050;-78
2024/04/14 09:02:45;;;;;;;1.80;0.80;;;;;;;;;;5424339;26;20042;-78
2024/04/14 09:05:13;;;;;;;1.17;0.80;;;;;;;;;;5426765;26;20007;-77
2024/04/14 09:07:42;;;;;;;0.88;0.88;;;;;;;;;;5423126;26;20004;-77
2024/04/14 09:10:08;;;;;;;2.15;1.05;;;;;;;;;;5422384;26;20118;-77
2024/04/14 09:12:35;;;;;;;1.30;1.00;;;;;;;;;;5392613;26;20088;-78
2024/04/14 09:15:03;;;;;;;1.27;1.02;;;;;;;;;;5427697;26;20006;-79
2024/04/14 09:17:30;;;;;;;2.05;1.23;;;;;;;;;;5427287;26;20068;-79
2024/04/14 09:19:56;;;;;;;2.78;1.10;;;;;;;;;;5423278;26;20065;-78
2024/04/14 09:22:23;;;;;;;0.80;0.80;;;;;;;;;;5392606;26;20482;-76
2024/04/14 09:24:50;;;;;;;0.90;0.80;;;;;;;;;;5424620;26;19995;-76
2024/04/14 09:27:17;;;;;;;2.13;1.05;;;;;;;;;;5397090;26;20107;-79
2024/04/14 09:29:43;;;;;;;2.53;1.17;;;;;;;;;;5423283;26;19995;-77
2024/04/14 09:32:09;;;;;;;3.15;1.00;;;;;;;;;;5394983;26;20057;-77
2024/04/14 09:34:41;;;;;;;1.00;0.90;;;;;;;;;;5408377;26;20453;-75
2024/04/14 09:37:12;;;;;;;1.85;1.23;;;;;;;;;;5422475;26;20007;-78
2024/04/14 09:39:38;;;;;;;1.80;1.10;;;;;;;;;;5419272;26;20011;-77
2024/04/14 09:42:05;;;;;;;2.78;0.80;;;;;;;;;;5388232;26;20015;-76
2024/04/14 09:44:32;;;;;;;1.42;1.23;;;;;;;;;;5419394;26;20004;-76
2024/04/14 09:46:59;;;;;;;1.80;1.23;;;;;;;;;;5418671;26;20042;-77
2024/04/14 09:49:29;;;;;;;2.70;0.90;;;;;;;;;;5418812;26;19996;-77
2024/04/14 09:51:57;;;;;;;3.35;1.20;;;;;;;;;;5418796;26;19999;-78
2024/04/14 09:54:23;;;;;;;2.75;1.17;;;;;;;;;;5419005;26;20470;-76
2024/04/14 09:56:49;;;;;;;2.78;0.98;;;;;;;;;;5426267;26;19996;-77
2024/04/14 09:59:16;;;;;;;3.75;1.67;;;;;;;;;;5425057;26;20012;-77
2024/04/14 10:01:44;;;;;;;1.40;1.30;;;;;;;;;;5409872;26;20274;-77
2024/04/14 10:04:10;;;;;;;2.58;1.10;;;;;;;;;;5421810;26;20109;-77
2024/04/14 10:06:37;;;;;;;1.75;1.35;;;;;;;;;;5420811;26;20286;-77
2024/04/14 10:09:04;;;;;;;1.33;1.23;;;;;;;;;;5421647;26;19995;-77
2024/04/14 10:11:33;;;;;;;1.33;1.20;;;;;;;;;;5391958;26;19999;-79
2024/04/14 10:14:01;;;;;;;1.20;1.10;;;;;;;;;;5431741;26;20000;-78
2024/04/14 10:16:27;;;;;;;1.15;0.90;;;;;;;;;;5433766;26;19996;-78
2024/04/14 10:18:53;;;;;;;2.38;1.15;;;;;;;;;;5424615;26;20134;-80
2024/04/14 10:21:22;;;;;;;1.23;1.08;;;;;;;;;;5393030;26;20330;-78
2024/04/14 10:23:57;;;;;;;0.75;0.70;;;;;;;;;;5424768;26;19991;-79
2024/04/14 10:26:24;;;;;;;1.35;1.00;;;;;;;;;;5380154;26;20019;-79
2024/04/14 10:28:54;;;;;;;1.50;1.30;;;;;;;;;;5392702;26;20478;-79
2024/04/14 10:31:30;;;;;;;2.65;1.30;;;;;;;;;;5423187;26;20003;-79
2024/04/14 10:34:04;;;;;;;3.03;1.10;;;;;;;;;;5392799;26;19999;-78
2024/04/14 10:36:30;;;;;;;1.85;1.08;;;;;;;;;;5411635;26;20043;-80
2024/04/14 10:38:57;;;;;;;2.30;1.35;;;;;;;;;;5429078;26;20007;-78
2024/04/14 10:41:23;;;;;;;2.88;1.17;;;;;;;;;;5427824;26;19999;-76
2024/04/14 10:43:49;;;;;;;1.75;1.08;;;;;;;;;;5425527;26;19999;-79
2024/04/14 10:46:16;;;;;;;0.93;0.93;;;;;;;;;;5423141;26;20084;-80
2024/04/14 10:48:44;;;;;;;2.08;0.77;;;;;;;;;;5424516;26;20334;-78
2024/04/14 10:51:10;;;;;;;1.00;0.90;;;;;;;;;;5393482;26;20000;-78
2024/04/14 10:53:36;;;;;;;0.98;0.98;;;;;;;;;;5422628;26;20015;-77
2024/04/14 10:56:02;;;;;;;1.58;1.10;;;;;;;;;;5422887;26;20011;-78
2024/04/14 10:58:33;;;;;;;1.58;1.10;;;;;;;;;;5436360;26;20487;-77
2024/04/14 11:01:00;;;;;;;1.10;1.00;;;;;;;;;;5421826;26;20361;-78
2024/04/14 11:03:26;;;;;;;1.83;1.05;;;;;;;;;;5422296;26;20032;-79
2024/04/14 11:05:53;;;;;;;1.30;1.15;;;;;;;;;;5422749;26;19999;-77
2024/04/14 11:08:19;;;;;;;0.93;0.93;;;;;;;;;;5425442;26;20096;-79
2024/04/14 11:10:46;;;;;;;1.42;1.33;;;;;;;;;;5430187;26;20408;-79
2024/04/14 11:13:16;;;;;;;2.45;1.10;;;;;;;;;;5423144;26;20002;-78
2024/04/14 11:15:42;;;;;;;1.40;1.30;;;;;;;;;;5422378;26;20558;-78
2024/04/14 11:18:08;;;;;;;1.38;1.13;;;;;;;;;;5424148;26;20007;-78
2024/04/14 11:20:35;;;;;;;2.78;1.80;;;;;;;;;;5428310;26;19999;-77
2024/04/14 11:23:01;;;;;;;4.10;1.88;;;;;;;;;;5424701;26;20042;-78
2024/04/14 11:25:28;;;;;;;2.15;1.10;;;;;;;;;;5426293;26;20027;-77
2024/04/14 11:27:55;;;;;;;2.60;1.40;;;;;;;;;;5439424;26;20047;-76
2024/04/14 11:30:26;;;;;;;1.83;1.35;;;;;;;;;;5425067;26;19996;-78
2024/04/14 11:32:52;;;;;;;3.45;1.02;;;;;;;;;;5423748;26;20019;-78
2024/04/14 11:35:20;;;;;;;1.45;1.23;;;;;;;;;;5424968;26;20014;-79
2024/04/14 11:37:51;;;;;;;1.13;1.02;;;;;;;;;;5392222;26;19999;-78
2024/04/14 11:40:18;;;;;;;4.80;1.40;;;;;;;;;;5434860;26;19995;-78
2024/04/14 11:42:45;;;;;;;2.47;1.30;;;;;;;;;;5395811;26;20753;-78
2024/04/14 11:45:11;;;;;;;1.35;1.20;;;;;;;;;;5428813;26;20003;-78
2024/04/14 11:47:38;;;;;;;1.13;1.02;;;;;;;;;;5424758;26;19996;-78
2024/04/14 11:50:04;;;;;;;1.83;1.10;;;;;;;;;;5397442;26;20004;-76
2024/04/14 11:52:44;;;;;;;1.73;1.20;;;;;;;;;;5422282;26;20422;-76
2024/04/14 11:55:10;;;;;;;1.35;1.20;;;;;;;;;;5424750;26;20067;-80
2024/04/14 11:57:36;;;;;;;1.27;1.17;;;;;;;;;;5425804;26;20438;-77
2024/04/14 12:00:03;;;;;;;1.17;1.00;;;;;;;;;;5419283;26;20015;-76
2024/04/14 12:02:29;;;;;;;1.42;1.30;;;;;;;;;;5423182;26;20067;-77
2024/04/14 12:04:55;;;;;;;1.80;1.02;;;;;;;;;;5424230;26;20053;-76
2024/04/14 12:07:21;;;;;;;1.35;1.23;;;;;;;;;;5424840;26;19999;-78
2024/04/14 12:09:51;;;;;;;1.10;1.10;;;;;;;;;;5430565;26;20010;-78
2024/04/14 12:12:17;;;;;;;1.85;1.30;;;;;;;;;;5422608;26;20007;-79
2024/04/14 12:14:44;;;;;;;1.30;1.20;;;;;;;;;;5387032;26;20068;-78
2024/04/14 12:17:13;;;;;;;2.45;1.30;;;;;;;;;;5386741;26;20006;-78
2024/04/14 12:19:39;;;;;;;2.53;1.60;;;;;;;;;;5419200;26;20341;-78
2024/04/14 12:22:05;;;;;;;1.45;1.15;;;;;;;;;;5354027;26;20020;-78
2024/04/14 12:24:31;;;;;;;3.22;1.30;;;;;;;;;;5419867;26;20014;-78
2024/04/14 12:26:57;;;;;;;1.30;1.20;;;;;;;;;;5419578;26;20069;-78
2024/04/14 12:29:24;;;;;;;1.58;1.25;;;;;;;;;;5405061;26;19996;-78
2024/04/14 12:31:50;;;;;;;1.35;1.25;;;;;;;;;;5393437;26;19996;-78
2024/04/14 12:34:16;;;;;;;1.50;1.40;;;;;;;;;;5403958;26;20007;-77
2024/04/14 12:36:42;;;;;;;1.55;1.02;;;;;;;;;;5435022;21;20010;-77
2024/04/14 12:39:09;;;;;;;2.72;1.50;;;;;;;;;;5435210;26;20005;-78
2024/04/14 12:41:35;;;;;;;1.40;1.30;;;;;;;;;;5427563;26;20078;-78
2024/04/14 12:44:01;;;;;;;1.40;1.30;;;;;;;;;;5422199;26;20049;-79
2024/04/14 12:46:27;;;;;;;2.88;1.40;;;;;;;;;;5428408;26;20031;-77
2024/04/14 12:48:53;;;;;;;2.05;1.40;;;;;;;;;;5422004;26;20018;-78
2024/04/14 12:51:19;;;;;;;1.85;1.30;;;;;;;;;;5413852;26;20007;-77
2024/04/14 12:53:47;;;;;;;5.05;1.60;;;;;;;;;;5420104;26;19992;-78
2024/04/14 12:56:13;;;;;;;1.52;1.27;;;;;;;;;;5408150;26;20012;-78
2024/04/14 12:58:40;;;;;;;2.45;1.27;;;;;;;;;;5418360;26;19999;-77
2024/04/14 13:01:06;;;;;;;1.45;1.30;;;;;;;;;;5410668;26;20008;-76
2024/04/14 13:03:32;;;;;;;2.20;1.60;;;;;;;;;;5419779;26;20000;-77
2024/04/14 13:05:59;;;;;;;2.10;1.30;;;;;;;;;;5410664;26;20000;-77
2024/04/14 13:08:25;;;;;;;2.17;1.13;;;;;;;;;;5410088;26;20007;-77
2024/04/14 13:10:51;;;;;;;1.50;1.33;;;;;;;;;;5419618;26;20004;-76
2024/04/14 13:13:17;;;;;;;1.45;1.23;;;;;;;;;;5418048;26;20010;-78
2024/04/14 13:15:45;;;;;;;1.52;1.30;;;;;;;;;;5421263;26;20000;-77
2024/04/14 13:18:16;;;;;;;1.60;1.40;;;;;;;;;;5419332;26;20000;-80
2024/04/14 13:20:43;;;;;;;1.50;1.45;;;;;;;;;;5420599;26;20086;-79
2024/04/14 13:23:09;;;;;;;2.55;1.17;;;;;;;;;;5424656;26;19991;-81
2024/04/14 13:25:35;;;;;;;2.63;1.25;;;;;;;;;;5436147;26;19991;-83
2024/04/14 13:28:01;;;;;;;1.55;1.40;;;;;;;;;;5437592;26;20007;-83
2024/04/14 13:30:27;;;;;;;1.38;1.27;;;;;;;;;;5435712;26;20078;-83
2024/04/14 13:32:53;;;;;;;4.32;1.30;;;;;;;;;;5428778;26;19995;-82
2024/04/14 13:35:20;;;;;;;1.58;1.48;;;;;;;;;;5433615;26;19999;-80
2024/04/14 13:37:46;;;;;;;1.90;1.42;;;;;;;;;;5420220;26;19996;-84
2024/04/14 13:40:12;;;;;;;2.60;1.60;;;;;;;;;;5424792;26;19989;-82
2024/04/14 13:42:40;;;;;;;1.60;1.50;;;;;;;;;;5431934;26;20004;-81
2024/04/14 13:45:06;;;;;;;3.83;1.40;;;;;;;;;;5437272;26;20080;-82
2024/04/14 13:47:32;;;;;;;1.38;1.17;;;;;;;;;;5425775;26;20010;-78
2024/04/14 13:49:58;;;;;;;1.55;1.38;;;;;;;;;;5417108;26;20010;-78
2024/04/14 13:52:28;;;;;;;1.00;1.00;;;;;;;;;;5425111;26;20079;-78
2024/04/14 13:54:55;;;;;;;2.03;1.50;;;;;;;;;;5428473;26;20008;-79
2024/04/14 13:57:23;;;;;;;1.65;1.40;;;;;;;;;;5435180;26;20009;-79
2024/04/14 13:59:50;;;;;;;1.92;1.33;;;;;;;;;;5436020;26;20004;-80
2024/04/14 14:02:17;;;;;;;2.05;1.30;;;;;;;;;;5422700;26;20050;-79
2024/04/14 14:04:46;;;;;;;1.65;1.35;;;;;;;;;;5434485;26;19995;-79
2024/04/14 14:07:13;;;;;;;2.78;1.55;;;;;;;;;;5433430;26;20011;-79
2024/04/14 14:09:39;;;;;;;1.88;1.40;;;;;;;;;;5432437;26;20006;-80
2024/04/14 14:12:06;;;;;;;1.42;1.20;;;;;;;;;;5436032;26;20003;-78
2024/04/14 14:14:32;;;;;;;2.53;1.63;;;;;;;;;;5436697;26;19996;-78
2024/04/14 14:17:01;;;;;;;2.78;1.65;;;;;;;;;;5438232;26;20124;-78
2024/04/14 14:19:27;;;;;;;1.65;1.20;;;;;;;;;;5439545;26;20010;-79
2024/04/14 14:21:53;;;;;;;3.10;1.60;;;;;;;;;;5439385;26;20042;-80
2024/04/14 14:24:20;;;;;;;1.23;1.17;;;;;;;;;;5438567;26;19996;-80
2024/04/14 14:26:46;;;;;;;1.42;1.33;;;;;;;;;;5433943;26;19999;-79
2024/04/14 14:29:12;;;;;;;1.30;1.20;;;;;;;;;;5430525;26;20006;-77
2024/04/14 14:31:38;;;;;;;2.03;1.73;;;;;;;;;;5419635;26;20010;-78
2024/04/14 14:36:49;;;;;;;1.40;1.30;;;;;;;;;;5431887;26;20011;-78
2024/04/14 14:39:16;;;;;;;1.52;1.42;;;;;;;;;;5429781;26;19999;-78
2024/04/14 14:41:42;;;;;;;1.85;1.27;;;;;;;;;;5424067;26;20493;-78